Metar z pełnej godziny Komunikat METAR ze strony awiacja.imgw.pl Metar G00 EPKT METAR EPKT 190200Z 27003KT CAVOK 16/12 Q1020 =